createdAt,value
2018-01-30T00:00:41.220Z,94.58
2018-01-30T00:01:43.688Z,95.04
2018-01-30T00:02:46.164Z,95.20
2018-01-30T00:03:48.652Z,95.33
2018-01-30T00:04:51.121Z,95.56
2018-01-30T00:05:53.609Z,95.28
2018-01-30T00:06:56.068Z,95.45
2018-01-30T00:07:58.603Z,95.27
2018-01-30T00:09:01.077Z,94.90
2018-01-30T00:10:03.545Z,94.40
2018-01-30T00:11:06.021Z,94.22
2018-01-30T00:12:08.482Z,94.70
2018-01-30T00:13:10.957Z,95.06
2018-01-30T00:14:13.429Z,95.28
2018-01-30T00:15:15.891Z,95.44
2018-01-30T00:16:18.368Z,95.67
2018-01-30T00:17:20.899Z,95.70
2018-01-30T00:18:23.381Z,95.69
2018-01-30T00:19:25.840Z,95.72
2018-01-30T00:20:28.317Z,95.92
2018-01-30T00:21:30.795Z,95.92
2018-01-30T00:22:33.273Z,95.91
2018-01-30T00:23:35.750Z,95.94
2018-01-30T00:24:38.220Z,96.03
2018-01-30T00:25:40.692Z,95.86
2018-01-30T00:26:43.173Z,95.60
2018-01-30T00:27:45.632Z,95.31
2018-01-30T00:28:48.100Z,95.43
2018-01-30T00:29:50.577Z,95.48
2018-01-30T00:30:53.043Z,95.31
2018-01-30T00:31:55.502Z,95.01
2018-01-30T00:32:57.977Z,94.50
2018-01-30T00:34:00.502Z,94.46
2018-01-30T00:35:02.955Z,94.50
2018-01-30T00:36:05.436Z,94.76
2018-01-30T00:37:07.890Z,95.06
2018-01-30T00:38:10.346Z,95.07
2018-01-30T00:39:12.808Z,95.17
2018-01-30T00:40:15.271Z,95.17
2018-01-30T00:41:17.731Z,95.13
2018-01-30T00:42:20.201Z,95.12
2018-01-30T00:43:22.664Z,95.02
2018-01-30T00:44:25.144Z,95.02
2018-01-30T00:45:27.598Z,95.21
2018-01-30T00:46:30.069Z,95.38
2018-01-30T00:47:32.536Z,95.53
2018-01-30T00:48:35.007Z,95.63
2018-01-30T00:49:37.487Z,95.37
2018-01-30T00:50:39.946Z,95.32
2018-01-30T00:51:42.420Z,95.39
2018-01-30T00:52:44.930Z,95.63
2018-01-30T00:53:47.405Z,95.78
2018-01-30T00:54:49.885Z,95.75
2018-01-30T00:55:52.360Z,95.76
2018-01-30T00:56:54.818Z,95.91
2018-01-30T00:57:57.274Z,96.05
2018-01-30T00:58:59.734Z,96.18
2018-01-30T01:00:02.210Z,96.36
2018-01-30T01:01:04.689Z,96.18
2018-01-30T01:02:07.150Z,95.49
2018-01-30T01:03:09.621Z,95.00
2018-01-30T01:04:12.080Z,94.90
2018-01-30T01:05:14.542Z,94.87
2018-01-30T01:06:17.023Z,95.05
2018-01-30T01:07:19.496Z,95.23
2018-01-30T01:08:21.969Z,95.56
2018-01-30T01:09:24.434Z,95.83
2018-01-30T01:10:26.905Z,95.72
2018-01-30T01:11:29.380Z,95.71
2018-01-30T01:12:31.849Z,95.77
2018-01-30T01:13:34.365Z,95.73
2018-01-30T01:14:36.844Z,95.80
2018-01-30T01:15:39.329Z,95.73
2018-01-30T01:16:41.794Z,95.49
2018-01-30T01:17:44.251Z,95.46
2018-01-30T01:18:46.735Z,95.62
2018-01-30T01:19:49.209Z,95.65
2018-01-30T01:20:51.684Z,95.78
2018-01-30T01:21:54.146Z,95.84
2018-01-30T01:22:56.621Z,96.02
2018-01-30T01:23:59.087Z,96.32
2018-01-30T01:25:01.540Z,96.55
2018-01-30T01:26:04.009Z,96.44
2018-01-30T01:27:06.485Z,96.29
2018-01-30T01:28:08.943Z,95.70
2018-01-30T01:29:11.417Z,95.37
2018-01-30T01:30:13.897Z,95.06
2018-01-30T01:31:16.375Z,94.91
2018-01-30T01:32:18.845Z,95.14
2018-01-30T01:33:21.303Z,95.29
2018-01-30T01:34:23.797Z,95.67
2018-01-30T01:35:26.250Z,96.14
2018-01-30T01:36:28.764Z,96.50
2018-01-30T01:37:31.226Z,96.58
2018-01-30T01:38:33.754Z,96.72
2018-01-30T01:39:36.236Z,96.77
2018-01-30T01:40:38.692Z,96.91
2018-01-30T01:41:41.147Z,96.83
2018-01-30T01:42:43.606Z,96.90
2018-01-30T01:43:46.090Z,96.85
2018-01-30T01:44:48.548Z,96.81
2018-01-30T01:45:51.007Z,96.77
2018-01-30T01:46:53.623Z,96.49
2018-01-30T01:47:56.089Z,96.34
2018-01-30T01:48:58.565Z,96.10
2018-01-30T01:50:01.023Z,96.05
2018-01-30T01:51:03.488Z,95.87
2018-01-30T01:52:05.957Z,95.77
2018-01-30T01:53:08.428Z,95.98
2018-01-30T01:54:10.938Z,96.21
2018-01-30T01:55:13.394Z,96.32
2018-01-30T01:56:15.855Z,96.25
2018-01-30T01:57:18.322Z,96.16
2018-01-30T01:58:20.793Z,96.12
2018-01-30T01:59:23.260Z,96.43
2018-01-30T02:00:25.733Z,96.62
2018-01-30T02:01:28.202Z,96.78
2018-01-30T02:02:30.791Z,96.96
2018-01-30T02:03:33.424Z,97.14
2018-01-30T02:04:35.895Z,97.38
2018-01-30T02:05:38.369Z,97.31
2018-01-30T02:06:40.845Z,97.09
2018-01-30T02:07:43.322Z,96.98
2018-01-30T02:08:45.797Z,96.81
2018-01-30T02:09:48.270Z,96.79
2018-01-30T02:10:50.733Z,96.70
2018-01-30T02:11:53.187Z,96.66
2018-01-30T02:12:55.643Z,96.80
2018-01-30T02:13:58.116Z,97.06
2018-01-30T02:15:00.583Z,97.08
2018-01-30T02:16:03.061Z,97.12
2018-01-30T02:17:05.540Z,97.14
2018-01-30T02:18:08.006Z,97.20
2018-01-30T02:19:10.471Z,97.58
2018-01-30T02:20:12.935Z,97.48
2018-01-30T02:21:15.391Z,97.41
2018-01-30T02:22:17.854Z,97.54
2018-01-30T02:23:20.332Z,97.80
2018-01-30T02:24:22.808Z,97.65
2018-01-30T02:25:25.293Z,97.55
2018-01-30T02:26:27.768Z,97.20
2018-01-30T02:27:30.244Z,97.13
2018-01-30T02:28:32.717Z,97.23
2018-01-30T02:29:35.188Z,97.38
2018-01-30T02:30:37.646Z,97.69
2018-01-30T02:31:40.123Z,97.85
2018-01-30T02:32:42.590Z,97.73
2018-01-30T02:33:45.050Z,97.61
2018-01-30T02:34:47.541Z,97.71
2018-01-30T02:35:50.020Z,97.80
2018-01-30T02:36:52.477Z,97.96
2018-01-30T02:37:54.942Z,98.17
2018-01-30T02:38:57.421Z,98.20
2018-01-30T02:39:59.905Z,98.34
2018-01-30T02:41:02.389Z,98.49
2018-01-30T02:42:04.856Z,98.63
2018-01-30T02:43:07.360Z,98.73
2018-01-30T02:44:09.844Z,98.71
2018-01-30T02:45:12.307Z,98.70
2018-01-30T02:46:14.790Z,98.74
2018-01-30T02:47:17.282Z,98.85
2018-01-30T02:48:19.764Z,98.98
2018-01-30T02:49:22.234Z,99.04
2018-01-30T02:50:24.702Z,99.12
2018-01-30T02:51:27.171Z,99.22
2018-01-30T02:52:29.653Z,99.21
2018-01-30T02:53:32.139Z,99.08
2018-01-30T02:54:34.617Z,99.00
2018-01-30T02:55:37.083Z,98.98
2018-01-30T02:56:39.569Z,99.00
2018-01-30T02:57:42.053Z,98.92
2018-01-30T02:58:44.522Z,98.87
2018-01-30T02:59:46.992Z,98.88
2018-01-30T03:00:49.459Z,98.93
2018-01-30T03:01:51.928Z,98.99
2018-01-30T03:02:54.408Z,98.98
2018-01-30T03:03:56.874Z,98.92
2018-01-30T03:04:59.348Z,98.77
2018-01-30T03:06:01.829Z,98.59
2018-01-30T03:07:04.294Z,98.47
2018-01-30T03:08:06.807Z,98.49
2018-01-30T03:09:09.300Z,98.52
2018-01-30T03:10:11.767Z,98.29
2018-01-30T03:11:14.331Z,98.21
2018-01-30T03:12:16.811Z,97.95
2018-01-30T03:13:19.289Z,97.76
2018-01-30T03:14:21.764Z,97.72
2018-01-30T03:15:24.265Z,97.92
2018-01-30T03:16:26.748Z,98.05
2018-01-30T03:17:29.229Z,97.99
2018-01-30T03:18:31.694Z,97.87
2018-01-30T03:19:34.187Z,97.66
2018-01-30T03:20:36.668Z,97.54
2018-01-30T03:21:39.130Z,97.72
2018-01-30T03:22:41.594Z,97.79
2018-01-30T03:23:44.071Z,97.82
2018-01-30T03:24:46.547Z,97.87
2018-01-30T03:25:49.018Z,97.84
2018-01-30T03:26:51.493Z,97.89
2018-01-30T03:27:53.982Z,98.03
2018-01-30T03:28:56.450Z,98.01
2018-01-30T03:29:58.915Z,98.11
2018-01-30T03:31:01.371Z,98.24
2018-01-30T03:32:03.844Z,98.35
2018-01-30T03:33:06.345Z,98.41
2018-01-30T03:34:08.811Z,98.48
2018-01-30T03:35:11.310Z,98.55
2018-01-30T03:36:13.789Z,98.69
2018-01-30T03:37:16.264Z,98.79
2018-01-30T03:38:18.849Z,98.80
2018-01-30T03:39:21.315Z,98.85
2018-01-30T03:40:23.792Z,98.86
2018-01-30T03:41:26.273Z,98.90
2018-01-30T03:42:28.738Z,98.91
2018-01-30T03:43:31.202Z,98.96
2018-01-30T03:44:33.662Z,99.05
2018-01-30T03:45:36.126Z,99.13
2018-01-30T03:46:38.605Z,99.17
2018-01-30T03:47:41.088Z,99.13
2018-01-30T03:48:43.565Z,99.07
2018-01-30T03:49:46.046Z,99.07
2018-01-30T03:50:48.511Z,99.16
2018-01-30T03:51:50.985Z,99.18
2018-01-30T03:52:53.451Z,99.08
2018-01-30T03:53:55.933Z,99.01
2018-01-30T03:54:58.416Z,98.83
2018-01-30T03:56:00.913Z,98.38
2018-01-30T03:57:03.374Z,97.85
2018-01-30T03:58:05.849Z,97.48
2018-01-30T03:59:08.331Z,97.38
2018-01-30T04:00:10.813Z,97.51
2018-01-30T04:01:13.274Z,97.60
2018-01-30T04:02:15.759Z,97.99
2018-01-30T04:03:18.221Z,98.15
2018-01-30T04:04:20.686Z,98.28
2018-01-30T04:05:23.155Z,98.31
2018-01-30T04:06:25.632Z,98.45
2018-01-30T04:07:28.098Z,98.50
2018-01-30T04:08:30.563Z,98.64
2018-01-30T04:09:33.110Z,98.72
2018-01-30T04:10:35.580Z,98.83
2018-01-30T04:11:38.075Z,99.01
2018-01-30T04:12:40.557Z,98.96
2018-01-30T04:13:43.038Z,98.87
2018-01-30T04:14:45.502Z,98.84
2018-01-30T04:15:47.966Z,98.94
2018-01-30T04:16:50.440Z,98.97
2018-01-30T04:17:52.903Z,98.84
2018-01-30T04:18:55.380Z,98.71
2018-01-30T04:19:57.874Z,98.64
2018-01-30T04:21:00.345Z,98.58
2018-01-30T04:22:02.826Z,98.45
2018-01-30T04:23:05.294Z,98.04
2018-01-30T04:24:07.777Z,97.73
2018-01-30T04:25:10.257Z,97.60
2018-01-30T04:26:12.733Z,97.67
2018-01-30T04:27:15.200Z,97.71
2018-01-30T04:28:17.672Z,97.73
2018-01-30T04:29:20.142Z,97.83
2018-01-30T04:30:22.606Z,97.91
2018-01-30T04:31:25.066Z,98.04
2018-01-30T04:32:27.525Z,98.07
2018-01-30T04:33:30.000Z,98.15
2018-01-30T04:34:32.478Z,98.26
2018-01-30T04:35:34.964Z,98.39
2018-01-30T04:36:37.430Z,98.42
2018-01-30T04:37:39.913Z,98.43
2018-01-30T04:38:42.392Z,98.52
2018-01-30T04:39:44.862Z,98.44
2018-01-30T04:40:47.331Z,98.34
2018-01-30T04:41:49.824Z,98.32
2018-01-30T04:42:52.296Z,98.34
2018-01-30T04:43:54.760Z,98.34
2018-01-30T04:44:57.236Z,98.43
2018-01-30T04:45:59.721Z,98.51
2018-01-30T04:47:02.271Z,98.55
2018-01-30T04:48:04.754Z,98.66
2018-01-30T04:49:07.233Z,98.72
2018-01-30T04:50:09.698Z,98.86
2018-01-30T04:51:12.176Z,98.81
2018-01-30T04:52:14.652Z,98.80
2018-01-30T04:53:17.134Z,99.04
2018-01-30T04:54:19.609Z,98.96
2018-01-30T04:55:22.074Z,98.84
2018-01-30T04:56:24.535Z,98.79
2018-01-30T04:57:27.014Z,98.75
2018-01-30T04:58:29.496Z,98.80
2018-01-30T04:59:31.984Z,99.03
2018-01-30T05:00:34.469Z,99.09
2018-01-30T05:01:36.943Z,99.00
2018-01-30T05:02:39.410Z,98.96
2018-01-30T05:03:41.880Z,98.98
2018-01-30T05:04:44.360Z,99.00
2018-01-30T05:05:46.850Z,99.01
2018-01-30T05:06:49.313Z,99.04
2018-01-30T05:07:51.793Z,99.04
2018-01-30T05:08:54.259Z,99.14
2018-01-30T05:09:56.748Z,99.14
2018-01-30T05:10:59.214Z,99.14
2018-01-30T05:12:01.689Z,99.07
2018-01-30T05:13:04.198Z,98.95
2018-01-30T05:14:06.666Z,98.89
2018-01-30T05:15:09.130Z,98.90
2018-01-30T05:16:11.630Z,98.99
2018-01-30T05:17:14.108Z,99.07
2018-01-30T05:18:16.593Z,99.19
2018-01-30T05:19:19.062Z,99.05
2018-01-30T05:20:21.527Z,98.87
2018-01-30T05:21:23.995Z,98.59
2018-01-30T05:22:26.540Z,98.33
2018-01-30T05:23:29.010Z,98.17
2018-01-30T05:24:31.474Z,98.03
2018-01-30T05:25:33.956Z,97.92
2018-01-30T05:26:36.439Z,97.84
2018-01-30T05:27:38.924Z,97.81
2018-01-30T05:28:41.405Z,98.02
2018-01-30T05:29:43.967Z,98.13
2018-01-30T05:30:46.452Z,98.22
2018-01-30T05:31:48.914Z,98.31
2018-01-30T05:32:51.378Z,98.24
2018-01-30T05:33:53.857Z,98.30
2018-01-30T05:34:56.319Z,98.45
2018-01-30T05:35:58.793Z,98.55
2018-01-30T05:37:01.275Z,98.72
2018-01-30T05:38:03.739Z,98.96
2018-01-30T05:39:06.206Z,98.97
2018-01-30T05:40:08.712Z,98.98
2018-01-30T05:41:11.193Z,99.04
2018-01-30T05:42:13.684Z,99.21
2018-01-30T05:43:16.187Z,99.24
2018-01-30T05:44:18.664Z,99.29
2018-01-30T05:45:21.136Z,99.38
2018-01-30T05:46:23.611Z,99.49
2018-01-30T05:47:26.101Z,99.58
2018-01-30T05:48:28.629Z,99.66
2018-01-30T05:49:31.099Z,99.79
2018-01-30T05:50:33.562Z,99.85
2018-01-30T05:51:36.036Z,99.85
2018-01-30T05:52:38.518Z,99.79
2018-01-30T05:53:40.990Z,99.43
2018-01-30T05:54:43.487Z,99.18
2018-01-30T05:55:45.970Z,98.98
2018-01-30T05:56:48.430Z,98.73
2018-01-30T05:57:50.954Z,98.59
2018-01-30T05:58:53.440Z,98.55
2018-01-30T05:59:55.925Z,98.39
2018-01-30T06:00:58.413Z,98.29
2018-01-30T06:02:00.901Z,98.27
2018-01-30T06:03:03.367Z,98.34
2018-01-30T06:04:05.840Z,98.50
2018-01-30T06:05:08.364Z,98.68
2018-01-30T06:06:10.882Z,98.39
2018-01-30T06:07:13.326Z,98.24
2018-01-30T06:08:15.937Z,98.22
2018-01-30T06:09:18.396Z,98.34
2018-01-30T06:10:20.864Z,98.41
2018-01-30T06:11:23.340Z,98.41
2018-01-30T06:12:25.820Z,98.48
2018-01-30T06:13:28.297Z,98.58
2018-01-30T06:14:30.776Z,98.68
2018-01-30T06:15:33.243Z,99.04
2018-01-30T06:16:35.719Z,99.18
2018-01-30T06:17:38.186Z,99.25
2018-01-30T06:18:40.772Z,99.08
2018-01-30T06:19:43.388Z,98.88
2018-01-30T06:20:45.913Z,98.81
2018-01-30T06:21:48.349Z,98.66
2018-01-30T06:22:50.898Z,98.37
2018-01-30T06:23:53.866Z,97.95
2018-01-30T06:24:56.338Z,97.34
2018-01-30T06:25:58.829Z,96.95
2018-01-30T06:27:01.317Z,97.07
2018-01-30T06:28:03.800Z,96.95
2018-01-30T06:29:06.282Z,97.12
2018-01-30T06:30:08.762Z,97.34
2018-01-30T06:31:11.230Z,97.70
2018-01-30T06:32:13.754Z,97.96
2018-01-30T06:33:16.245Z,98.18
2018-01-30T06:34:18.724Z,98.40
2018-01-30T06:35:21.204Z,98.47
2018-01-30T06:36:23.686Z,98.49
2018-01-30T06:37:26.150Z,98.57
2018-01-30T06:38:28.643Z,98.56
2018-01-30T06:39:31.120Z,98.60
2018-01-30T06:40:33.618Z,98.64
2018-01-30T06:41:36.110Z,98.78
2018-01-30T06:42:38.640Z,98.97
2018-01-30T06:43:41.145Z,99.23
2018-01-30T06:44:43.625Z,99.39
2018-01-30T06:45:46.107Z,99.52
2018-01-30T06:46:48.594Z,99.69
2018-01-30T06:47:51.083Z,99.84
2018-01-30T06:48:53.576Z,99.84
2018-01-30T06:49:56.066Z,99.75
2018-01-30T06:50:58.546Z,99.70
2018-01-30T06:52:01.108Z,99.62
2018-01-30T06:53:03.589Z,99.53
2018-01-30T06:54:06.054Z,99.23
2018-01-30T06:55:08.532Z,99.07
2018-01-30T06:56:11.001Z,98.98
2018-01-30T06:57:13.466Z,98.89
2018-01-30T06:58:15.941Z,98.67
2018-01-30T06:59:18.428Z,98.58
2018-01-30T07:00:20.997Z,98.59
2018-01-30T07:01:23.473Z,98.65
2018-01-30T07:02:25.946Z,98.69
2018-01-30T07:03:28.424Z,98.71
2018-01-30T07:04:30.890Z,98.81
2018-01-30T07:05:33.373Z,98.80
2018-01-30T07:06:35.853Z,98.76
2018-01-30T07:07:38.329Z,98.92
2018-01-30T07:08:40.795Z,98.94
2018-01-30T07:09:43.276Z,98.93
2018-01-30T07:10:45.746Z,98.97
2018-01-30T07:11:48.315Z,98.92
2018-01-30T07:12:50.793Z,98.92
2018-01-30T07:13:53.258Z,98.97
2018-01-30T07:14:55.736Z,99.15
2018-01-30T07:15:58.214Z,99.17
2018-01-30T07:17:00.674Z,99.33
2018-01-30T07:18:03.142Z,99.23
2018-01-30T07:19:05.610Z,99.15
2018-01-30T07:20:08.100Z,99.10
2018-01-30T07:21:10.576Z,99.12
2018-01-30T07:22:13.115Z,99.08
2018-01-30T07:23:15.553Z,99.04
2018-01-30T07:24:18.036Z,98.97
2018-01-30T07:25:20.499Z,98.52
2018-01-30T07:26:22.976Z,97.79
2018-01-30T07:27:25.439Z,97.04
2018-01-30T07:28:27.929Z,96.35
2018-01-30T07:29:30.390Z,96.64
2018-01-30T07:30:32.854Z,96.73
2018-01-30T07:31:35.324Z,96.79
2018-01-30T07:32:37.805Z,96.72
2018-01-30T07:33:40.306Z,97.04
2018-01-30T07:34:42.780Z,97.27
2018-01-30T07:35:45.257Z,97.18
2018-01-30T07:36:47.741Z,97.10
2018-01-30T07:37:50.236Z,96.50
2018-01-30T07:38:52.704Z,96.35
2018-01-30T07:39:55.186Z,96.12
2018-01-30T07:40:57.697Z,96.08
2018-01-30T07:42:00.155Z,96.44
2018-01-30T07:43:02.657Z,96.88
2018-01-30T07:44:05.225Z,97.33
2018-01-30T07:45:07.711Z,97.49
2018-01-30T07:46:10.193Z,97.39
2018-01-30T07:47:12.659Z,97.49
2018-01-30T07:48:15.143Z,97.49
2018-01-30T07:49:17.607Z,97.21
2018-01-30T07:50:20.084Z,96.80
2018-01-30T07:51:22.561Z,95.80
2018-01-30T07:52:25.037Z,95.49
2018-01-30T07:53:27.520Z,95.30
2018-01-30T07:54:29.996Z,95.59
2018-01-30T07:55:32.462Z,96.06
2018-01-30T07:56:34.945Z,96.48
2018-01-30T07:57:37.426Z,96.91
2018-01-30T07:58:39.896Z,96.14
2018-01-30T07:59:42.367Z,96.10
2018-01-30T08:00:44.853Z,96.16
2018-01-30T08:01:47.340Z,96.36
2018-01-30T08:02:49.807Z,96.62
2018-01-30T08:03:52.326Z,96.47
2018-01-30T08:04:54.810Z,96.50
2018-01-30T08:05:57.291Z,96.28
2018-01-30T08:06:59.809Z,96.32
2018-01-30T08:08:02.297Z,96.25
2018-01-30T08:09:04.766Z,95.80
2018-01-30T08:10:07.263Z,95.77
2018-01-30T08:11:10.018Z,95.89
2018-01-30T08:12:12.510Z,96.02
2018-01-30T08:13:14.992Z,96.44
2018-01-30T08:14:17.469Z,96.88
2018-01-30T08:15:19.930Z,97.46
2018-01-30T08:16:22.407Z,97.86
2018-01-30T08:17:24.870Z,98.05
2018-01-30T08:18:27.335Z,98.06
2018-01-30T08:19:29.795Z,97.82
2018-01-30T08:20:32.304Z,95.94
2018-01-30T08:21:35.329Z,95.24
2018-01-30T08:22:38.049Z,95.12
2018-01-30T08:23:40.533Z,92.10
2018-01-30T08:24:43.011Z,94.29
2018-01-30T08:25:45.490Z,93.82
2018-01-30T08:26:47.973Z,93.97
2018-01-30T08:27:50.448Z,91.57
2018-01-30T08:28:52.918Z,90.32
2018-01-30T08:29:55.387Z,92.60
2018-01-30T08:30:57.867Z,92.63
2018-01-30T08:32:00.330Z,89.94
2018-01-30T08:33:02.795Z,89.65
2018-01-30T08:34:05.263Z,89.97
2018-01-30T08:35:07.735Z,90.95
2018-01-30T08:36:10.919Z,92.80
2018-01-30T08:37:13.401Z,92.73
2018-01-30T08:38:15.871Z,94.23
2018-01-30T08:39:18.352Z,94.87
2018-01-30T08:40:21.688Z,90.74
2018-01-30T08:41:24.155Z,87.74
2018-01-30T08:42:26.638Z,87.21
2018-01-30T08:43:29.115Z,83.20
2018-01-30T08:44:31.588Z,84.15
2018-01-30T08:45:34.056Z,81.24
2018-01-30T08:46:36.519Z,81.85
2018-01-30T08:47:39.001Z,81.21
2018-01-30T08:48:41.488Z,81.37
2018-01-30T08:49:43.963Z,82.84
2018-01-30T08:50:46.449Z,83.29
2018-01-30T08:51:48.919Z,74.90
2018-01-30T08:52:51.396Z,70.05
2018-01-30T08:53:53.870Z,69.52
2018-01-30T08:54:56.347Z,70.26
2018-01-30T08:55:59.145Z,69.50
2018-01-30T08:57:01.637Z,68.71
2018-01-30T08:58:04.108Z,69.90
2018-01-30T08:59:06.582Z,69.08
2018-01-30T09:00:09.047Z,69.63
2018-01-30T09:01:11.515Z,70.49
2018-01-30T09:02:13.997Z,68.86
2018-01-30T09:03:16.470Z,68.02
2018-01-30T09:04:18.939Z,66.90
2018-01-30T09:05:21.429Z,66.72
2018-01-30T09:06:23.913Z,66.43
2018-01-30T09:07:26.382Z,67.62
2018-01-30T09:08:28.850Z,68.51
2018-01-30T09:09:31.322Z,66.02
2018-01-30T09:10:33.803Z,64.07
2018-01-30T09:11:36.289Z,64.78
2018-01-30T09:12:38.764Z,63.53
2018-01-30T09:13:41.254Z,61.92
2018-01-30T09:14:44.161Z,62.70
2018-01-30T09:15:46.630Z,63.92
2018-01-30T09:16:49.195Z,67.03
2018-01-30T09:17:51.673Z,72.13
2018-01-30T09:18:54.299Z,75.56
2018-01-30T09:19:56.780Z,76.41
2018-01-30T09:20:59.242Z,76.50
2018-01-30T09:22:01.725Z,76.49
2018-01-30T09:23:04.186Z,77.28
2018-01-30T09:24:06.658Z,77.35
2018-01-30T09:25:09.133Z,77.75
2018-01-30T09:26:11.599Z,79.64
2018-01-30T09:27:14.081Z,80.94
2018-01-30T09:28:16.550Z,81.94
2018-01-30T09:29:19.025Z,81.63
2018-01-30T09:30:21.517Z,82.56
2018-01-30T09:31:24.002Z,82.51
2018-01-30T09:32:26.466Z,82.78
2018-01-30T09:33:28.969Z,83.16
2018-01-30T09:34:31.438Z,83.83
2018-01-30T09:35:33.921Z,83.72
2018-01-30T09:36:36.387Z,83.81
2018-01-30T09:37:38.867Z,83.52
2018-01-30T09:38:41.353Z,83.37
2018-01-30T09:39:43.818Z,83.37
2018-01-30T09:40:46.298Z,84.03
2018-01-30T09:41:48.764Z,83.94
2018-01-30T09:42:51.244Z,83.19
2018-01-30T09:43:53.725Z,83.06
2018-01-30T09:44:56.208Z,83.57
2018-01-30T09:45:58.675Z,82.82
2018-01-30T09:47:01.158Z,83.39
2018-01-30T09:48:03.634Z,82.90
2018-01-30T09:49:06.103Z,82.62
2018-01-30T09:50:08.589Z,82.67
2018-01-30T09:51:11.056Z,82.52
2018-01-30T09:52:13.545Z,82.89
2018-01-30T09:53:16.015Z,83.21
2018-01-30T09:54:18.507Z,83.84
2018-01-30T09:55:20.997Z,84.52
2018-01-30T09:56:23.485Z,83.64
2018-01-30T09:57:25.968Z,83.40
2018-01-30T09:58:28.439Z,83.38
2018-01-30T09:59:30.972Z,83.67
2018-01-30T10:00:33.512Z,83.66
2018-01-30T10:01:35.980Z,83.99
2018-01-30T10:02:38.548Z,83.46
2018-01-30T10:03:41.032Z,83.61
2018-01-30T10:04:43.518Z,83.63
2018-01-30T10:05:45.982Z,84.19
2018-01-30T10:06:48.470Z,84.01
2018-01-30T10:07:50.938Z,84.39
2018-01-30T10:08:53.424Z,84.17
2018-01-30T10:09:55.891Z,84.67
2018-01-30T10:10:58.409Z,84.88
2018-01-30T10:12:00.882Z,84.86
2018-01-30T10:13:03.368Z,84.73
2018-01-30T10:14:05.830Z,83.64
2018-01-30T10:15:08.345Z,83.24
2018-01-30T10:16:10.815Z,83.40
2018-01-30T10:17:13.279Z,83.53
2018-01-30T10:18:15.759Z,83.06
2018-01-30T10:19:18.236Z,82.43
2018-01-30T10:20:20.703Z,81.51
2018-01-30T10:21:23.166Z,81.16
2018-01-30T10:22:25.635Z,81.15
2018-01-30T10:23:28.094Z,81.31
2018-01-30T10:24:30.563Z,79.60
2018-01-30T10:25:33.049Z,79.25
2018-01-30T10:26:35.524Z,78.53
2018-01-30T10:27:37.990Z,78.96
2018-01-30T10:28:40.455Z,78.25
2018-01-30T10:29:42.938Z,77.30
2018-01-30T10:30:45.432Z,77.66
2018-01-30T10:31:47.896Z,78.52
2018-01-30T10:32:50.377Z,76.95
2018-01-30T10:33:52.852Z,75.41
2018-01-30T10:34:55.332Z,73.30
2018-01-30T10:35:57.795Z,72.75
2018-01-30T10:37:00.267Z,72.11
2018-01-30T10:38:02.752Z,69.96
2018-01-30T10:39:05.225Z,69.98
2018-01-30T10:40:07.699Z,69.18
2018-01-30T10:41:10.218Z,66.16
2018-01-30T10:42:12.715Z,62.16
2018-01-30T10:43:15.201Z,59.11
2018-01-30T10:44:17.688Z,59.83
2018-01-30T10:45:20.230Z,58.67
2018-01-30T10:46:22.710Z,53.91
2018-01-30T10:47:25.182Z,52.91
2018-01-30T10:48:27.709Z,53.54
2018-01-30T10:49:30.221Z,52.17
2018-01-30T10:50:32.696Z,51.65
2018-01-30T10:51:35.184Z,51.71
2018-01-30T10:52:37.697Z,50.23
2018-01-30T10:53:40.171Z,50.91
2018-01-30T10:54:42.643Z,50.09
2018-01-30T10:55:45.208Z,49.95
2018-01-30T10:56:47.687Z,49.06
2018-01-30T10:57:50.235Z,50.39
2018-01-30T10:58:52.702Z,52.75
2018-01-30T10:59:55.195Z,54.85
2018-01-30T11:00:57.687Z,57.25
2018-01-30T11:02:00.221Z,54.09
2018-01-30T11:03:02.708Z,55.67
2018-01-30T11:04:05.174Z,57.01
2018-01-30T11:05:07.713Z,58.55
2018-01-30T11:06:10.191Z,60.44
2018-01-30T11:07:12.680Z,63.40
2018-01-30T11:08:15.147Z,63.93
2018-01-30T11:09:17.623Z,64.92
2018-01-30T11:10:20.097Z,66.95
2018-01-30T11:11:22.564Z,66.60
2018-01-30T11:12:25.044Z,66.64
2018-01-30T11:13:27.536Z,66.71
2018-01-30T11:14:30.019Z,66.00
2018-01-30T11:15:32.501Z,69.46
2018-01-30T11:16:34.981Z,69.51
2018-01-30T11:17:37.446Z,69.40
2018-01-30T11:18:39.933Z,70.24
2018-01-30T11:19:42.404Z,71.96
2018-01-30T11:20:44.884Z,72.21
2018-01-30T11:21:47.354Z,71.07
2018-01-30T11:22:49.841Z,71.23
2018-01-30T11:23:52.364Z,70.34
2018-01-30T11:24:54.850Z,69.63
2018-01-30T11:25:57.330Z,69.13
2018-01-30T11:26:59.860Z,69.01
2018-01-30T11:28:02.341Z,69.89
2018-01-30T11:29:04.830Z,70.43
2018-01-30T11:30:07.320Z,71.53
2018-01-30T11:31:09.800Z,70.44
2018-01-30T11:32:12.308Z,71.29
2018-01-30T11:33:14.788Z,70.34
2018-01-30T11:34:17.296Z,70.05
2018-01-30T11:35:19.775Z,71.59
2018-01-30T11:36:22.248Z,71.37
2018-01-30T11:37:24.721Z,71.20
2018-01-30T11:38:27.200Z,70.36
2018-01-30T11:39:29.688Z,71.22
2018-01-30T11:40:32.177Z,71.01
2018-01-30T11:41:34.652Z,71.70
2018-01-30T11:42:37.132Z,72.95
2018-01-30T11:43:39.598Z,71.79
2018-01-30T11:44:42.066Z,72.23
2018-01-30T11:45:44.553Z,71.43
2018-01-30T11:46:47.022Z,69.34
2018-01-30T11:47:49.506Z,67.59
2018-01-30T11:48:51.975Z,67.92
2018-01-30T11:49:54.456Z,68.80
2018-01-30T11:50:57.279Z,68.97
2018-01-30T11:51:59.805Z,69.93
2018-01-30T11:53:02.301Z,69.56
2018-01-30T11:54:04.766Z,66.99
2018-01-30T11:55:07.249Z,67.35
2018-01-30T11:56:09.732Z,67.19
2018-01-30T11:57:12.218Z,66.43
2018-01-30T11:58:14.708Z,63.45
2018-01-30T11:59:17.180Z,63.35
2018-01-30T12:00:19.672Z,63.36
2018-01-30T12:01:22.153Z,63.29
2018-01-30T12:02:24.618Z,65.32
2018-01-30T12:03:27.098Z,64.21
2018-01-30T12:04:29.582Z,65.39
2018-01-30T12:05:32.059Z,66.63
2018-01-30T12:06:34.542Z,67.00
2018-01-30T12:07:37.285Z,67.81
2018-01-30T12:08:39.777Z,67.58
2018-01-30T12:09:42.268Z,67.21
2018-01-30T12:10:44.753Z,67.47
2018-01-30T12:11:47.219Z,68.66
2018-01-30T12:12:49.682Z,69.53
2018-01-30T12:13:52.160Z,69.80
2018-01-30T12:14:54.657Z,69.97
2018-01-30T12:15:57.125Z,69.32
2018-01-30T12:16:59.683Z,69.30
2018-01-30T12:18:02.181Z,68.64
2018-01-30T12:19:04.655Z,68.52
2018-01-30T12:20:07.169Z,67.97
2018-01-30T12:21:09.642Z,67.51
2018-01-30T12:22:12.117Z,67.34
2018-01-30T12:23:14.594Z,67.21
2018-01-30T12:24:17.058Z,66.55
2018-01-30T12:25:19.541Z,63.42
2018-01-30T12:26:22.009Z,63.02
2018-01-30T12:27:24.487Z,61.40
2018-01-30T12:28:26.994Z,61.10
2018-01-30T12:29:29.483Z,57.65
2018-01-30T12:30:31.950Z,56.05
2018-01-30T12:31:34.423Z,54.78
2018-01-30T12:32:36.909Z,55.44
2018-01-30T12:33:39.405Z,52.37
2018-01-30T12:34:41.894Z,51.60
2018-01-30T12:35:44.372Z,47.52
2018-01-30T12:36:46.842Z,47.84
2018-01-30T12:37:49.322Z,49.46
2018-01-30T12:38:51.791Z,52.75
2018-01-30T12:39:54.265Z,56.33
2018-01-30T12:40:56.748Z,58.62
2018-01-30T12:41:59.233Z,59.05
2018-01-30T12:43:01.712Z,59.51
2018-01-30T12:44:04.192Z,58.17
2018-01-30T12:45:06.685Z,56.57
2018-01-30T12:46:09.179Z,55.54
2018-01-30T12:47:11.688Z,53.56
2018-01-30T12:48:14.170Z,52.63
2018-01-30T12:49:16.642Z,53.99
2018-01-30T12:50:19.125Z,54.56
2018-01-30T12:51:21.614Z,52.73
2018-01-30T12:52:24.087Z,53.64
2018-01-30T12:53:26.575Z,54.41
2018-01-30T12:54:29.043Z,54.75
2018-01-30T12:55:31.791Z,54.82
2018-01-30T12:56:34.274Z,52.80
2018-01-30T12:57:36.739Z,51.88
2018-01-30T12:58:39.211Z,53.32
2018-01-30T12:59:41.748Z,55.48
2018-01-30T13:00:44.239Z,55.84
2018-01-30T13:01:46.715Z,57.50
2018-01-30T13:02:49.196Z,58.46
2018-01-30T13:03:51.673Z,60.94
2018-01-30T13:04:54.138Z,60.44
2018-01-30T13:05:56.617Z,60.97
2018-01-30T13:06:59.104Z,58.04
2018-01-30T13:08:01.596Z,54.51
2018-01-30T13:09:04.086Z,52.67
2018-01-30T13:10:06.563Z,50.82
2018-01-30T13:11:09.053Z,48.32
2018-01-30T13:12:11.547Z,48.15
2018-01-30T13:13:14.115Z,46.28
2018-01-30T13:14:16.594Z,47.14
2018-01-30T13:15:19.062Z,47.87
2018-01-30T13:16:21.556Z,46.77
2018-01-30T13:17:24.049Z,47.92
2018-01-30T13:18:26.521Z,48.30
2018-01-30T13:19:29.116Z,49.66
2018-01-30T13:20:31.597Z,48.07
2018-01-30T13:21:34.481Z,47.42
2018-01-30T13:22:36.947Z,48.83
2018-01-30T13:23:39.416Z,52.02
2018-01-30T13:24:41.886Z,54.37